createdAt,value
2019-04-04T00:02:19.138Z,98299.13
2019-04-04T00:04:47.986Z,98288.98
2019-04-04T00:07:16.393Z,98289.20
2019-04-04T00:09:45.017Z,98287.86
2019-04-04T00:12:13.476Z,98287.67
2019-04-04T00:14:43.515Z,98276.71
2019-04-04T00:17:12.110Z,98279.59
2019-04-04T00:19:40.534Z,98272.23
2019-04-04T00:22:08.923Z,98267.06
2019-04-04T00:24:39.332Z,98263.22
2019-04-04T00:27:07.618Z,98285.86
2019-04-04T00:29:36.189Z,98283.81
2019-04-04T00:32:04.579Z,98284.31
2019-04-04T00:34:32.972Z,98272.81
2019-04-04T00:37:04.407Z,98274.07
2019-04-04T00:39:31.699Z,98280.30
2019-04-04T00:42:00.108Z,98284.95
2019-04-04T00:44:28.494Z,98277.48
2019-04-04T00:46:56.981Z,98271.68
2019-04-04T00:49:25.370Z,98269.65
2019-04-04T00:51:53.991Z,98257.47
2019-04-04T00:54:22.430Z,98256.29
2019-04-04T00:56:50.936Z,98243.61
2019-04-04T00:59:22.642Z,98249.91
2019-04-04T01:01:49.813Z,98246.55
2019-04-04T01:04:18.200Z,98245.64
2019-04-04T01:06:46.742Z,98236.16
2019-04-04T01:09:15.140Z,98221.45
2019-04-04T01:11:43.576Z,98211.58
2019-04-04T01:14:11.959Z,98206.64
2019-04-04T01:16:40.363Z,98194.62
2019-04-04T01:19:09.978Z,98201.95
2019-04-04T01:21:38.841Z,98211.83
2019-04-04T01:24:07.295Z,98216.27
2019-04-04T01:26:35.942Z,98204.77
2019-04-04T01:29:05.834Z,98180.44
2019-04-04T01:31:34.476Z,98183.38
2019-04-04T01:34:04.614Z,98191.19
2019-04-04T01:36:33.015Z,98182.89
2019-04-04T01:39:01.807Z,98181.77
2019-04-04T01:41:30.224Z,98176.83
2019-04-04T01:44:04.967Z,98169.13
2019-04-04T01:46:28.835Z,98153.25
2019-04-04T01:49:16.486Z,98158.81
2019-04-04T01:51:45.129Z,98154.82
2019-04-04T01:54:13.566Z,98158.67
2019-04-04T01:56:42.292Z,98168.44
2019-04-04T01:59:12.296Z,98185.70
2019-04-04T02:01:40.805Z,98191.70
2019-04-04T02:04:09.443Z,98195.64
2019-04-04T02:06:37.944Z,98184.83
2019-04-04T02:09:07.674Z,98166.37
2019-04-04T02:11:37.641Z,98162.20
2019-04-04T02:14:06.432Z,98162.70
2019-04-04T02:16:34.893Z,98163.80
2019-04-04T02:19:03.373Z,98141.23
2019-04-04T02:21:31.817Z,98120.27
2019-04-04T02:24:01.638Z,98121.95
2019-04-04T02:26:30.391Z,98144.91
2019-04-04T02:28:58.867Z,98150.89
2019-04-04T02:31:28.998Z,98147.77
2019-04-04T02:33:57.385Z,98157.16
2019-04-04T02:36:25.781Z,98120.95
2019-04-04T02:39:08.766Z,98103.60
2019-04-04T02:41:37.765Z,98132.59
2019-04-04T02:44:06.514Z,98145.09
2019-04-04T02:46:34.923Z,98136.27
2019-04-04T02:49:03.890Z,98118.83
2019-04-04T02:51:32.282Z,98106.76
2019-04-04T02:54:00.695Z,98103.01
2019-04-04T02:56:29.517Z,98103.81
2019-04-04T02:58:57.986Z,98098.00
2019-04-04T03:01:26.473Z,98101.44
2019-04-04T03:03:54.952Z,98081.36
2019-04-04T03:06:24.474Z,98091.37
2019-04-04T03:08:53.542Z,98093.68
2019-04-04T03:11:22.955Z,98107.12
2019-04-04T03:13:51.546Z,98114.02
2019-04-04T03:16:21.614Z,98107.36
2019-04-04T03:18:50.203Z,98086.90
2019-04-04T03:21:22.233Z,98083.98
2019-04-04T03:23:49.047Z,98092.05
2019-04-04T03:28:35.211Z,98054.45
2019-04-04T03:31:04.164Z,98031.73
2019-04-04T03:33:32.985Z,98038.31
2019-04-04T03:36:01.461Z,98027.05
2019-04-04T03:38:29.908Z,98019.78
2019-04-04T03:40:58.801Z,98003.52
2019-04-04T03:43:27.355Z,98004.66
2019-04-04T03:46:00.359Z,98029.11
2019-04-04T03:48:25.881Z,98040.94
2019-04-04T03:50:57.181Z,98045.13
2019-04-04T03:53:24.442Z,98036.26
2019-04-04T03:55:53.054Z,98031.70
2019-04-04T03:58:21.450Z,98018.16
2019-04-04T04:00:49.913Z,98003.89
2019-04-04T04:03:22.221Z,98009.77
2019-04-04T04:05:48.426Z,98013.48
2019-04-04T04:08:20.978Z,98016.12
2019-04-04T04:10:46.991Z,98011.17
2019-04-04T04:13:17.342Z,98000.78
2019-04-04T04:15:45.591Z,98006.66
2019-04-04T04:18:14.172Z,98007.16
2019-04-04T04:20:42.664Z,98006.77
2019-04-04T04:23:11.242Z,98003.84
2019-04-04T04:25:41.316Z,98006.02
2019-04-04T04:28:09.782Z,98016.22
2019-04-04T04:30:40.424Z,98011.97
2019-04-04T04:33:08.410Z,98004.91
2019-04-04T04:35:40.816Z,98004.02
2019-04-04T04:38:07.081Z,97996.63
2019-04-04T04:40:35.540Z,98000.83
2019-04-04T04:43:04.016Z,98003.46
2019-04-04T04:45:32.406Z,97989.32
2019-04-04T04:48:00.813Z,97990.01
2019-04-04T04:50:29.432Z,97989.27
2019-04-04T04:52:57.827Z,97986.13
2019-04-04T04:55:27.236Z,97980.05
2019-04-04T04:57:56.787Z,97981.56
2019-04-04T05:00:27.668Z,97992.06
2019-04-04T05:02:55.757Z,97982.95
2019-04-04T05:05:24.203Z,97973.75
2019-04-04T05:07:54.843Z,97977.61
2019-04-04T05:10:22.806Z,97976.20
2019-04-04T05:12:53.043Z,97970.79
2019-04-04T05:15:21.518Z,97964.42
2019-04-04T05:17:49.937Z,97953.29
2019-04-04T05:20:18.404Z,97953.59
2019-04-04T05:22:46.974Z,97970.17
2019-04-04T05:25:15.435Z,97975.11
2019-04-04T05:27:43.830Z,97969.85
2019-04-04T05:30:15.922Z,97973.92
2019-04-04T05:32:42.530Z,97973.22
2019-04-04T05:35:11.024Z,97966.23
2019-04-04T05:37:39.396Z,97957.61
2019-04-04T05:40:08.818Z,97949.27
2019-04-04T05:42:37.206Z,97957.53
2019-04-04T05:45:07.755Z,97956.53
2019-04-04T05:47:36.547Z,97961.78
2019-04-04T05:50:06.348Z,97962.41
2019-04-04T05:52:34.755Z,97899.31
2019-04-04T05:55:03.764Z,97970.83
2019-04-04T05:57:32.140Z,97970.73
2019-04-04T06:00:00.567Z,97970.11
2019-04-04T06:02:29.058Z,97958.39
2019-04-04T06:04:57.609Z,97966.53
2019-04-04T06:07:26.022Z,97956.58
2019-04-04T06:09:54.703Z,97970.98
2019-04-04T06:12:25.126Z,97958.45
2019-04-04T06:14:53.356Z,97955.77
2019-04-04T06:17:21.759Z,97951.81
2019-04-04T06:19:50.527Z,97963.03
2019-04-04T06:22:19.071Z,97959.39
2019-04-04T06:24:52.013Z,97961.09
2019-04-04T06:27:19.214Z,97958.08
2019-04-04T06:29:48.302Z,97964.77
2019-04-04T06:32:16.718Z,97957.50
2019-04-04T06:34:45.300Z,97960.39
2019-04-04T06:37:13.806Z,97971.91
2019-04-04T06:39:42.367Z,97977.48
2019-04-04T06:42:11.382Z,97973.27
2019-04-04T06:44:39.951Z,97902.92
2019-04-04T06:47:08.492Z,97966.66
2019-04-04T06:49:36.960Z,97961.64
2019-04-04T06:52:05.406Z,97971.80
2019-04-04T06:54:33.806Z,97970.64
2019-04-04T06:57:04.023Z,97961.02
2019-04-04T06:59:33.304Z,97954.12
2019-04-04T07:02:05.082Z,97967.16
2019-04-04T07:04:35.744Z,97959.27
2019-04-04T07:07:02.666Z,97982.98
2019-04-04T07:09:31.246Z,97990.31
2019-04-04T07:11:59.655Z,97989.62
2019-04-04T07:14:30.208Z,97981.66
2019-04-04T07:16:58.385Z,97967.89
2019-04-04T07:19:26.926Z,97980.69
2019-04-04T07:21:55.446Z,97998.70
2019-04-04T07:24:23.892Z,97999.41
2019-04-04T07:26:52.317Z,97986.98
2019-04-04T07:29:20.774Z,97988.81
2019-04-04T07:31:49.217Z,97981.00
2019-04-04T07:34:17.649Z,97981.00
2019-04-04T07:36:46.037Z,97981.92
2019-04-04T07:39:14.472Z,97978.48
2019-04-04T07:41:44.943Z,97982.12
2019-04-04T07:44:13.164Z,97982.42
2019-04-04T07:46:45.368Z,97983.74
2019-04-04T07:49:11.809Z,97977.40
2019-04-04T07:51:40.470Z,97987.22
2019-04-04T07:54:09.056Z,97991.05
2019-04-04T07:56:37.648Z,97981.23
2019-04-04T07:59:06.050Z,97977.91
2019-04-04T08:01:34.519Z,97969.67
2019-04-04T08:04:03.032Z,97980.92
2019-04-04T08:06:31.471Z,97969.31
2019-04-04T08:08:59.977Z,97962.20
2019-04-04T08:11:28.389Z,97951.27
2019-04-04T08:13:56.819Z,97959.88
2019-04-04T08:16:25.219Z,97958.56
2019-04-04T08:18:53.718Z,97972.64
2019-04-04T08:21:22.165Z,97971.13
2019-04-04T08:23:50.857Z,97987.61
2019-04-04T08:26:19.327Z,97986.83
2019-04-04T08:28:47.747Z,98001.45
2019-04-04T08:31:16.315Z,97980.84
2019-04-04T08:33:44.737Z,97972.25
2019-04-04T08:36:13.360Z,97974.48
2019-04-04T08:38:41.775Z,97980.55
2019-04-04T08:41:10.438Z,97973.89
2019-04-04T08:43:38.852Z,97969.62
2019-04-04T08:46:07.329Z,97982.49
2019-04-04T08:48:35.755Z,97989.91
2019-04-04T08:51:04.267Z,97987.88
2019-04-04T08:53:39.862Z,97986.45
2019-04-04T08:56:02.791Z,97991.63
2019-04-04T08:58:31.186Z,97987.37
2019-04-04T09:00:59.671Z,98000.12
2019-04-04T09:03:28.091Z,97984.24
2019-04-04T09:05:56.598Z,97987.69
2019-04-04T09:08:25.203Z,97980.78
2019-04-04T09:10:53.665Z,97963.38
2019-04-04T09:13:22.145Z,97949.20
2019-04-04T09:15:50.569Z,97941.92
2019-04-04T09:18:19.000Z,97927.34
2019-04-04T09:20:47.460Z,97926.94
2019-04-04T09:23:15.919Z,97925.73
2019-04-04T09:25:44.802Z,97934.22
2019-04-04T09:28:13.201Z,97944.55
2019-04-04T09:30:41.830Z,97949.39
2019-04-04T09:33:10.234Z,97943.23
2019-04-04T09:35:38.954Z,97940.98
2019-04-04T09:38:07.367Z,97934.02
2019-04-04T09:40:35.990Z,97975.83
2019-04-04T09:43:04.531Z,97988.47
2019-04-04T09:45:33.092Z,97960.55
2019-04-04T09:48:01.511Z,97970.04
2019-04-04T09:50:29.984Z,97979.69
2019-04-04T09:52:58.384Z,97983.41
2019-04-04T09:55:27.051Z,97993.34
2019-04-04T09:57:55.542Z,97935.84
2019-04-04T10:00:24.357Z,97993.31
2019-04-04T10:02:53.078Z,97998.27
2019-04-04T10:05:21.552Z,98002.61
2019-04-04T10:07:50.209Z,98009.07
2019-04-04T10:10:18.950Z,98014.75
2019-04-04T10:12:47.393Z,98007.67
2019-04-04T10:15:17.237Z,98014.84
2019-04-04T10:17:49.112Z,98026.47
2019-04-04T10:20:16.617Z,98012.82
2019-04-04T10:22:45.092Z,98009.66
2019-04-04T10:25:13.644Z,98014.98
2019-04-04T10:27:42.187Z,98012.98
2019-04-04T10:30:12.114Z,98021.17
2019-04-04T10:32:40.531Z,98012.36
2019-04-04T10:35:09.222Z,98010.55
2019-04-04T10:37:37.659Z,98015.38
2019-04-04T10:40:07.377Z,98013.71
2019-04-04T10:42:36.105Z,98013.02
2019-04-04T10:45:06.754Z,98005.88
2019-04-04T10:47:35.207Z,98006.07
2019-04-04T10:50:05.455Z,98020.77
2019-04-04T10:52:33.916Z,98030.23
2019-04-04T10:55:02.611Z,98024.66
2019-04-04T10:57:31.101Z,98033.36
2019-04-04T10:59:59.518Z,98025.47
2019-04-04T11:02:28.040Z,98025.16
2019-04-04T11:04:56.438Z,98022.56
2019-04-04T11:07:25.118Z,98026.02
2019-04-04T11:09:53.601Z,98015.00
2019-04-04T11:12:22.008Z,98018.64
2019-04-04T11:14:50.452Z,98026.94
2019-04-04T11:17:18.827Z,98021.17
2019-04-04T11:19:47.244Z,98017.71
2019-04-04T11:22:15.642Z,98022.17
2019-04-04T11:24:44.118Z,98020.07
2019-04-04T11:27:12.763Z,98027.76
2019-04-04T11:29:41.182Z,98025.61
2019-04-04T11:32:09.658Z,98014.50
2019-04-04T11:34:38.226Z,98010.73
2019-04-04T11:37:06.665Z,98012.27
2019-04-04T11:39:35.073Z,98020.16
2019-04-04T11:42:03.672Z,98040.31
2019-04-04T11:44:32.172Z,98047.61
2019-04-04T11:47:00.741Z,98046.61
2019-04-04T11:49:29.234Z,98056.55
2019-04-04T11:51:57.899Z,98057.66
2019-04-04T11:54:26.420Z,98065.52
2019-04-04T11:56:54.969Z,98062.98
2019-04-04T11:59:23.406Z,98061.22
2019-04-04T12:01:52.793Z,98029.92
2019-04-04T12:04:21.210Z,98011.73
2019-04-04T12:06:49.656Z,98065.97
2019-04-04T12:09:18.140Z,98067.43
2019-04-04T12:11:46.558Z,98070.34
2019-04-04T12:14:15.286Z,98079.66
2019-04-04T12:16:43.680Z,98098.39
2019-04-04T12:19:12.170Z,98111.59
2019-04-04T12:21:40.694Z,98117.05
2019-04-04T12:24:09.239Z,98107.72
2019-04-04T12:26:37.668Z,98102.23
2019-04-04T12:29:06.069Z,98111.08
2019-04-04T12:31:34.518Z,98123.86
2019-04-04T12:34:02.930Z,98128.20
2019-04-04T12:36:31.607Z,98136.56
2019-04-04T12:39:00.003Z,98149.47
2019-04-04T12:41:28.599Z,98142.89
2019-04-04T12:43:57.115Z,98147.33
2019-04-04T12:46:25.533Z,98143.59
2019-04-04T12:48:53.945Z,98146.27
2019-04-04T12:51:22.403Z,98153.16
2019-04-04T12:53:51.069Z,98157.11
2019-04-04T12:56:19.625Z,98158.92
2019-04-04T12:58:48.048Z,98167.64
2019-04-04T13:01:16.449Z,98172.41
2019-04-04T13:03:44.862Z,98176.97
2019-04-04T13:06:13.334Z,98181.86
2019-04-04T13:08:42.153Z,98185.55
2019-04-04T13:11:10.532Z,98190.08
2019-04-04T13:13:39.033Z,98184.81
2019-04-04T13:16:07.423Z,98184.17
2019-04-04T13:18:35.864Z,98184.81
2019-04-04T13:21:04.352Z,98172.84
2019-04-04T13:23:32.818Z,98175.09
2019-04-04T13:26:01.225Z,98179.33
2019-04-04T13:28:29.724Z,98162.45
2019-04-04T13:30:58.193Z,98168.41
2019-04-04T13:33:26.632Z,98180.88
2019-04-04T13:35:55.180Z,98190.41
2019-04-04T13:38:23.650Z,98211.47
2019-04-04T13:40:52.049Z,98231.17
2019-04-04T13:43:22.553Z,98239.63
2019-04-04T13:45:50.583Z,98245.93
2019-04-04T13:48:19.071Z,98253.16
2019-04-04T13:50:47.606Z,98246.34
2019-04-04T13:53:16.044Z,98237.23
2019-04-04T13:55:44.449Z,98220.95
2019-04-04T13:58:13.436Z,98217.52
2019-04-04T14:00:41.931Z,98198.89
2019-04-04T14:03:10.338Z,98189.17
2019-04-04T14:05:38.900Z,98181.56
2019-04-04T14:08:07.450Z,98176.99
2019-04-04T14:10:35.903Z,98168.90
2019-04-04T14:13:04.758Z,98161.09
2019-04-04T14:15:33.314Z,98169.93
2019-04-04T14:18:03.431Z,98177.71
2019-04-04T14:20:32.027Z,98182.16
2019-04-04T14:23:00.426Z,98186.01
2019-04-04T14:25:29.543Z,98189.61
2019-04-04T14:27:58.696Z,98195.88
2019-04-04T14:30:27.459Z,98236.27
2019-04-04T14:32:55.898Z,98274.46
2019-04-04T14:35:24.343Z,98293.75
2019-04-04T14:37:54.608Z,98293.73
2019-04-04T14:40:23.155Z,98285.57
2019-04-04T14:42:51.602Z,98284.03
2019-04-04T14:45:20.080Z,98257.09
2019-04-04T14:47:48.552Z,98237.83
2019-04-04T14:50:17.125Z,98228.82
2019-04-04T14:52:45.499Z,98231.28
2019-04-04T14:55:14.147Z,98251.55
2019-04-04T14:57:42.723Z,98276.28
2019-04-04T15:00:15.654Z,98284.78
2019-04-04T15:02:43.188Z,98285.63
2019-04-04T15:05:11.783Z,98297.45
2019-04-04T15:07:40.779Z,98307.97
2019-04-04T15:10:09.504Z,98307.55
2019-04-04T15:12:37.924Z,98311.33
2019-04-04T15:15:07.703Z,98304.92
2019-04-04T15:17:36.254Z,98302.68
2019-04-04T15:20:05.906Z,98298.17
2019-04-04T15:22:34.405Z,98300.87
2019-04-04T15:25:02.881Z,98305.11
2019-04-04T15:27:31.296Z,98310.95
2019-04-04T15:29:59.802Z,98315.72
2019-04-04T15:32:28.208Z,98315.02
2019-04-04T15:34:56.690Z,98311.70
2019-04-04T15:37:25.258Z,98322.63
2019-04-04T15:39:53.798Z,98331.70
2019-04-04T15:42:22.221Z,98328.66
2019-04-04T15:44:50.655Z,98320.88
2019-04-04T15:47:19.099Z,98321.50
2019-04-04T15:49:47.573Z,98321.88
2019-04-04T15:52:15.984Z,98315.14
2019-04-04T15:54:44.399Z,98308.99
2019-04-04T15:57:12.775Z,98317.65
2019-04-04T15:59:41.201Z,98309.23
2019-04-04T16:02:09.601Z,98303.03
2019-04-04T16:04:38.023Z,98288.31
2019-04-04T16:07:07.157Z,98291.80
2019-04-04T16:09:35.611Z,98301.84
2019-04-04T16:12:04.297Z,98320.10
2019-04-04T16:14:32.713Z,98330.12
2019-04-04T16:17:01.145Z,98328.86
2019-04-04T16:19:29.660Z,98331.84
2019-04-04T16:21:58.359Z,98332.16
2019-04-04T16:24:26.743Z,98331.09
2019-04-04T16:26:55.230Z,98328.21
2019-04-04T16:29:23.711Z,98320.95
2019-04-04T16:31:52.094Z,98320.70
2019-04-04T16:34:20.525Z,98324.52
2019-04-04T16:36:49.134Z,98334.63
2019-04-04T16:39:17.576Z,98331.23
2019-04-04T16:41:46.107Z,98338.31
2019-04-04T16:44:14.551Z,98341.11
2019-04-04T16:46:43.279Z,98352.40
2019-04-04T16:49:11.713Z,98362.91
2019-04-04T16:51:40.199Z,98367.91
2019-04-04T16:54:09.078Z,98372.16
2019-04-04T16:56:37.471Z,98382.45
2019-04-04T16:59:06.127Z,98384.44
2019-04-04T17:01:34.557Z,98376.47
2019-04-04T17:04:03.537Z,98384.76
2019-04-04T17:06:32.209Z,98388.07
2019-04-04T17:09:00.696Z,98393.87
2019-04-04T17:11:29.172Z,98338.39
2019-04-04T17:13:57.832Z,98395.63
2019-04-04T17:16:26.509Z,98399.12
2019-04-04T17:18:54.967Z,98408.77
2019-04-04T17:21:23.548Z,98407.14
2019-04-04T17:23:52.084Z,98403.75
2019-04-04T17:26:20.552Z,98395.45
2019-04-04T17:28:49.123Z,98402.42
2019-04-04T17:31:17.984Z,98404.13
2019-04-04T17:33:46.490Z,98410.06
2019-04-04T17:36:14.893Z,98410.92
2019-04-04T17:38:43.876Z,98404.30
2019-04-04T17:41:12.384Z,98406.33
2019-04-04T17:43:40.777Z,98399.08
2019-04-04T17:46:09.316Z,98405.02
2019-04-04T17:48:38.015Z,98397.81
2019-04-04T17:51:06.735Z,98414.03
2019-04-04T17:53:35.460Z,98421.63
2019-04-04T17:56:05.208Z,98432.88
2019-04-04T17:58:33.537Z,98429.69
2019-04-04T18:01:02.020Z,98434.73
2019-04-04T18:03:30.447Z,98436.72
2019-04-04T18:05:58.848Z,98445.59
2019-04-04T18:08:27.444Z,98454.78
2019-04-04T18:10:55.961Z,98455.28
2019-04-04T18:13:24.398Z,98462.34
2019-04-04T18:15:52.928Z,98468.73
2019-04-04T18:18:21.329Z,98473.98
2019-04-04T18:20:49.809Z,98473.17
2019-04-04T18:23:18.379Z,98465.89
2019-04-04T18:25:46.784Z,98474.16
2019-04-04T18:28:15.226Z,98481.23
2019-04-04T18:30:43.624Z,98479.84
2019-04-04T18:33:12.129Z,98472.64
2019-04-04T18:35:40.800Z,98475.44
2019-04-04T18:38:09.282Z,98474.34
2019-04-04T18:40:37.680Z,98477.49
2019-04-04T18:43:06.362Z,98502.45
2019-04-04T18:45:34.913Z,98513.92
2019-04-04T18:48:03.592Z,98504.16
2019-04-04T18:50:32.118Z,98508.31
2019-04-04T18:53:00.602Z,98505.83
2019-04-04T18:55:29.199Z,98511.94
2019-04-04T18:57:57.713Z,98497.77
2019-04-04T19:00:26.212Z,98493.48
2019-04-04T19:02:54.831Z,98500.08
2019-04-04T19:05:23.563Z,98499.37
2019-04-04T19:07:52.063Z,98506.69
2019-04-04T19:10:20.631Z,98510.30
2019-04-04T19:12:49.250Z,98511.19
2019-04-04T19:15:18.132Z,98526.25
2019-04-04T19:17:56.453Z,98531.42
2019-04-04T19:20:24.938Z,98540.94
2019-04-04T19:22:53.691Z,98547.86
2019-04-04T19:25:22.551Z,98545.27
2019-04-04T19:27:50.981Z,98549.52
2019-04-04T19:30:20.016Z,98555.91
2019-04-04T19:32:48.630Z,98562.16
2019-04-04T19:35:17.512Z,98566.92
2019-04-04T19:37:45.995Z,98561.81
2019-04-04T19:40:15.484Z,98563.45
2019-04-04T19:42:43.974Z,98570.68
2019-04-04T19:45:12.936Z,98554.28
2019-04-04T19:47:41.613Z,98551.22
2019-04-04T19:50:13.846Z,98559.42
2019-04-04T19:52:42.406Z,98563.30
2019-04-04T19:55:11.302Z,98562.59
2019-04-04T19:57:39.849Z,98566.56
2019-04-04T20:03:44.863Z,98541.26
2019-04-04T20:06:13.595Z,98543.66
2019-04-04T20:08:42.014Z,98552.97
2019-04-04T20:11:10.462Z,98558.51
2019-04-04T20:13:38.865Z,98553.75
2019-04-04T20:16:07.380Z,98568.09
2019-04-04T20:18:35.780Z,98568.61
2019-04-04T20:21:04.427Z,98566.66
2019-04-04T20:23:32.827Z,98555.48
2019-04-04T20:26:01.406Z,98542.95
2019-04-04T20:28:29.907Z,98538.44
2019-04-04T20:30:58.585Z,98547.01
2019-04-04T20:33:26.991Z,98553.03
2019-04-04T20:35:55.548Z,98558.60
2019-04-04T20:38:24.008Z,98562.13
2019-04-04T20:40:52.414Z,98560.52
2019-04-04T20:43:21.064Z,98562.34
2019-04-04T20:45:49.544Z,98565.02
2019-04-04T20:48:18.110Z,98574.86
2019-04-04T20:50:46.530Z,98580.55
2019-04-04T20:53:15.020Z,98588.92
2019-04-04T20:55:47.256Z,98587.23
2019-04-04T20:58:15.769Z,98590.00
2019-04-04T21:00:44.239Z,98604.77
2019-04-04T21:03:12.707Z,98598.87
2019-04-04T21:05:41.302Z,98599.20
2019-04-04T21:08:09.879Z,98594.30
